createdAt,value
2023-04-16T00:05:41.073Z,100338.88
2023-04-16T00:15:46.154Z,100340.88
2023-04-16T00:25:49.845Z,100338.06
2023-04-16T00:35:54.905Z,100352.81
2023-04-16T00:45:59.166Z,100349.22
2023-04-16T00:56:06.931Z,100356.03
2023-04-16T01:06:11.167Z,100356.78
2023-04-16T01:16:16.263Z,100362.91
2023-04-16T01:26:21.490Z,100363.06
2023-04-16T01:36:26.811Z,100377.00
2023-04-16T01:46:33.463Z,100394.25
2023-04-16T01:56:37.286Z,100390.44
2023-04-16T02:06:42.264Z,100396.81
2023-04-16T02:16:46.647Z,100403.75
2023-04-16T02:26:51.735Z,100409.31
2023-04-16T02:36:55.428Z,100408.25
2023-04-16T02:47:00.425Z,100397.16
2023-04-16T02:57:04.226Z,100408.03
2023-04-16T03:07:09.604Z,100407.81
2023-04-16T03:17:13.319Z,100416.47
2023-04-16T03:27:18.295Z,100419.72
2023-04-16T03:37:22.074Z,100420.44
2023-04-16T03:47:27.222Z,100423.63
2023-04-16T03:57:31.162Z,100413.59
2023-04-16T04:07:36.135Z,100427.66
2023-04-16T04:17:39.959Z,100426.53
2023-04-16T04:27:46.139Z,100429.69
2023-04-16T04:37:50.145Z,100446.34
2023-04-16T04:47:55.270Z,100449.78
2023-04-16T04:57:58.972Z,100458.78
2023-04-16T05:08:04.184Z,100460.78
2023-04-16T05:18:07.950Z,100467.28
2023-04-16T05:28:12.968Z,100482.44
2023-04-16T05:38:16.614Z,100496.16
2023-04-16T05:48:21.667Z,100504.47
2023-04-16T05:58:25.256Z,100524.44
2023-04-16T06:08:30.181Z,100520.72
2023-04-16T06:18:33.819Z,100530.22
2023-04-16T06:28:39.018Z,100533.63
2023-04-16T06:38:42.654Z,100535.00
2023-04-16T06:48:47.656Z,100545.84
2023-04-16T06:58:52.010Z,100546.56
2023-04-16T07:08:56.962Z,100564.09
2023-04-16T07:19:00.609Z,100562.44
2023-04-16T07:29:05.740Z,100566.81
2023-04-16T07:39:10.872Z,100563.72
2023-04-16T07:49:16.321Z,100574.53
2023-04-16T07:59:23.514Z,100575.53
2023-04-16T08:09:29.502Z,100583.47
2023-04-16T08:19:33.274Z,100591.47
2023-04-16T08:29:38.354Z,100615.09
2023-04-16T08:39:41.992Z,100617.44
2023-04-16T08:49:47.212Z,100626.28
2023-04-16T08:59:55.756Z,100614.97
2023-04-16T09:10:01.907Z,100622.19
2023-04-16T09:20:10.847Z,100635.97
2023-04-16T09:30:24.445Z,100644.63
2023-04-16T09:40:30.601Z,100656.84
2023-04-16T09:50:35.838Z,100655.69
2023-04-16T10:00:43.345Z,100671.22
2023-04-16T10:10:48.917Z,100674.13
2023-04-16T10:20:53.234Z,100685.34
2023-04-16T10:30:59.887Z,100701.78
2023-04-16T10:41:05.658Z,100706.72
2023-04-16T10:51:29.373Z,100709.09
2023-04-16T11:01:34.815Z,100708.88
2023-04-16T11:11:40.620Z,100724.84
2023-04-16T11:21:46.385Z,100738.53
2023-04-16T11:31:53.715Z,100752.09
2023-04-16T11:41:57.548Z,100758.94
2023-04-16T11:52:02.587Z,100759.47
2023-04-16T12:02:06.381Z,100774.72
2023-04-16T12:12:32.154Z,100761.47
2023-04-16T12:22:37.766Z,100765.16
2023-04-16T12:32:44.778Z,100765.28
2023-04-16T12:42:48.704Z,100758.34
2023-04-16T12:52:53.856Z,100757.75
2023-04-16T13:02:57.810Z,100757.66
2023-04-16T13:13:02.930Z,100756.50
2023-04-16T13:23:06.866Z,100751.03
2023-04-16T13:33:12.308Z,100757.34
2023-04-16T13:43:19.101Z,100749.63
2023-04-16T13:53:24.354Z,100751.44
2023-04-16T14:03:28.601Z,100746.56
2023-04-16T14:13:33.910Z,100749.94
2023-04-16T14:23:37.611Z,100761.00
2023-04-16T14:33:42.746Z,100760.66
2023-04-16T14:43:46.598Z,100754.78
2023-04-16T14:53:51.852Z,100760.84
2023-04-16T15:03:57.472Z,100761.75
2023-04-16T15:14:05.603Z,100753.31
2023-04-16T15:24:10.174Z,100752.34
2023-04-16T15:34:15.582Z,100757.28
2023-04-16T15:44:19.430Z,100768.84
2023-04-16T15:54:25.307Z,100773.44
2023-04-16T16:04:29.155Z,100770.91
2023-04-16T16:14:34.623Z,100788.38
2023-04-16T16:24:38.734Z,100798.91
2023-04-16T16:34:45.715Z,100810.34
2023-04-16T16:44:57.533Z,100826.47
2023-04-16T16:55:02.791Z,100822.94
2023-04-16T17:05:07.904Z,100825.84
2023-04-16T17:15:13.424Z,100840.06
2023-04-16T17:25:17.215Z,100848.47
2023-04-16T17:35:22.865Z,100862.59
2023-04-16T17:45:26.613Z,100870.34
2023-04-16T17:55:31.960Z,100876.91
2023-04-16T18:05:35.705Z,100889.75
2023-04-16T18:15:41.534Z,100896.81
2023-04-16T18:25:45.480Z,100911.75
2023-04-16T18:35:50.741Z,100922.97
2023-04-16T18:45:54.514Z,100931.75
2023-04-16T18:56:00.549Z,100943.31
2023-04-16T19:06:06.806Z,100937.44
2023-04-16T19:16:12.613Z,100953.56
2023-04-16T19:26:16.740Z,100957.16
2023-04-16T19:36:21.987Z,100963.22
2023-04-16T19:46:25.880Z,100964.34
2023-04-16T19:56:31.043Z,100968.50
2023-04-16T20:06:34.782Z,100971.47
2023-04-16T20:16:39.866Z,100970.31
2023-04-16T20:26:43.597Z,100980.88
2023-04-16T20:36:48.615Z,100977.75
2023-04-16T20:46:55.368Z,100981.66
2023-04-16T20:57:01.910Z,100982.34
2023-04-16T21:07:06.552Z,100985.31
2023-04-16T21:17:11.531Z,100975.44
2023-04-16T21:27:15.342Z,100970.47
2023-04-16T21:37:20.425Z,100981.56
2023-04-16T21:47:24.189Z,100979.94
2023-04-16T21:57:29.537Z,100972.56
2023-04-16T22:07:33.211Z,100986.06
2023-04-16T22:17:38.644Z,100991.56
2023-04-16T22:27:42.472Z,100984.13
2023-04-16T22:37:47.945Z,100980.38
2023-04-16T22:47:51.698Z,100977.31
2023-04-16T22:58:02.019Z,100972.47
2023-04-16T23:08:20.457Z,100977.06
2023-04-16T23:18:25.594Z,100975.13
2023-04-16T23:28:29.575Z,100983.72
2023-04-16T23:38:34.765Z,100967.19
2023-04-16T23:48:38.437Z,100979.72
2023-04-16T23:58:43.543Z,100974.09
